Time,TemperatureF,DewpointF,PressureIn,WindDirection,WindDirectionDegrees,WindSpeedMPH,WindSpeedGustMPH,Humidity,HourlyPrecipIn,Conditions,Clouds,dailyrainin,SolarRadiationWatts/m^2,SoftwareType,DateUTC
2013-10-19 00:11:00,30.0,4.0,-100.00,WNW,290,2.0,4.0,32,0.00,,,0.00,0.000000,,2013-10-19 07:11:00,
2013-10-19 00:21:00,30.0,4.0,-100.00,WNW,290,2.0,4.0,32,0.00,,,0.00,0.000000,,2013-10-19 07:21:00,
2013-10-19 00:32:00,30.0,4.0,-100.00,WNW,290,2.0,4.0,32,0.00,,,0.00,0.000000,,2013-10-19 07:32:00,
2013-10-19 01:11:00,30.0,2.0,-100.00,WNW,291,2.0,4.0,30,0.00,,,0.00,0.000000,,2013-10-19 08:11:00,
2013-10-19 01:22:00,30.0,2.0,-100.00,WNW,291,2.0,4.0,30,0.00,,,0.00,0.000000,,2013-10-19 08:22:00,
2013-10-19 01:32:00,30.0,2.0,-100.00,WNW,291,2.0,4.0,30,0.00,,,0.00,0.000000,,2013-10-19 08:32:00,
2013-10-19 02:11:00,29.0,1.0,-100.00,WNW,288,0.0,4.0,29,0.00,,,-99.99,0.000000,,2013-10-19 09:11:00,
2013-10-19 02:21:00,29.0,1.0,-100.00,WNW,288,0.0,4.0,29,0.00,,,-99.99,0.000000,,2013-10-19 09:21:00,
2013-10-19 02:33:00,29.0,1.0,-100.00,WNW,288,0.0,4.0,29,0.00,,,-99.99,0.000000,,2013-10-19 09:33:00,
2013-10-19 03:13:00,28.0,1.0,-100.00,WNW,289,2.0,4.0,31,0.00,,,0.00,0.000000,,2013-10-19 10:13:00,
2013-10-19 03:23:00,28.0,1.0,-100.00,WNW,289,2.0,4.0,31,0.00,,,0.00,0.000000,,2013-10-19 10:23:00,
2013-10-19 03:32:00,28.0,1.0,-100.00,WNW,289,2.0,4.0,31,0.00,,,0.00,0.000000,,2013-10-19 10:32:00,
2013-10-19 04:12:00,28.0,2.0,-100.00,WNW,291,0.0,4.0,32,0.00,,,0.00,0.000000,,2013-10-19 11:12:00,
2013-10-19 04:22:00,28.0,2.0,-100.00,WNW,291,0.0,4.0,32,0.00,,,0.00,0.000000,,2013-10-19 11:22:00,
2013-10-19 04:33:00,28.0,2.0,-100.00,WNW,291,0.0,4.0,32,0.00,,,0.00,0.000000,,2013-10-19 11:33:00,
2013-10-19 05:11:00,28.0,3.0,-100.00,WNW,293,0.0,4.0,33,0.00,,,0.00,0.000000,,2013-10-19 12:11:00,
2013-10-19 05:21:00,28.0,3.0,-100.00,WNW,293,0.0,4.0,33,0.00,,,0.00,0.000000,,2013-10-19 12:21:00,
2013-10-19 05:32:00,28.0,3.0,-100.00,WNW,293,0.0,4.0,33,0.00,,,0.00,0.000000,,2013-10-19 12:32:00,
2013-10-19 06:11:00,27.0,4.0,-100.00,WNW,290,0.0,4.0,36,0.00,,,0.00,0.000000,,2013-10-19 13:11:00,
2013-10-19 06:22:00,27.0,4.0,-100.00,WNW,290,0.0,4.0,36,0.00,,,0.00,0.000000,,2013-10-19 13:22:00,
2013-10-19 06:32:00,27.0,4.0,-100.00,WNW,290,0.0,4.0,36,0.00,,,0.00,0.000000,,2013-10-19 13:32:00,
2013-10-19 07:11:00,27.0,4.0,-100.00,WNW,289,0.0,4.0,37,0.00,,,0.00,0.000000,,2013-10-19 14:11:00,
2013-10-19 07:21:00,27.0,4.0,-100.00,WNW,289,0.0,4.0,37,0.00,,,0.00,0.000000,,2013-10-19 14:21:00,
2013-10-19 07:32:00,27.0,4.0,-100.00,WNW,289,0.0,4.0,37,0.00,,,0.00,0.000000,,2013-10-19 14:32:00,
2013-10-19 07:34:00,28.0,5.0,-100.00,WNW,293,1.0,4.0,36,0.00,,,0.00,6.000000,,2013-10-19 14:34:00,
2013-10-19 08:11:00,28.0,5.0,-100.00,WNW,293,1.0,4.0,36,0.00,,,0.00,6.000000,,2013-10-19 15:11:00,
2013-10-19 08:22:00,28.0,5.0,-100.00,WNW,293,1.0,4.0,36,0.00,,,0.00,6.000000,,2013-10-19 15:22:00,
2013-10-19 09:14:00,34.0,7.0,-100.00,NE,43,0.0,4.0,31,-99.99,,,0.00,27.000000,,2013-10-19 16:14:00,
2013-10-19 10:13:00,54.0,20.0,-100.00,East,87,0.0,0.0,26,-99.99,,,0.00,274.000000,,2013-10-19 17:13:00,
2013-10-19 11:12:00,68.0,14.0,-100.00,ESE,105,2.0,5.0,12,0.00,,,0.00,703.000000,,2013-10-19 18:12:00,
2013-10-19 11:21:00,68.0,14.0,-100.00,ESE,105,2.0,5.0,12,0.00,,,0.00,703.000000,,2013-10-19 18:21:00,
2013-10-19 11:32:00,68.0,14.0,-100.00,ESE,105,2.0,5.0,12,0.00,,,0.00,703.000000,,2013-10-19 18:32:00,
2013-10-19 12:12:00,70.0,11.0,-100.00,NNE,29,3.0,10.0,10,0.00,,,0.00,862.000000,,2013-10-19 19:12:00,
2013-10-19 12:22:00,70.0,11.0,-100.00,NNE,29,3.0,10.0,10,0.00,,,0.00,862.000000,,2013-10-19 19:22:00,
2013-10-19 12:32:00,70.0,11.0,-100.00,NNE,29,3.0,10.0,10,0.00,,,0.00,862.000000,,2013-10-19 19:32:00,
2013-10-19 14:34:00,70.0,15.0,-100.00,ESE,118,5.0,12.0,12,0.00,,,0.00,861.000000,,2013-10-19 21:34:00,
2013-10-19 15:14:00,70.0,15.0,-100.00,ESE,118,5.0,12.0,12,0.00,,,0.00,861.000000,,2013-10-19 22:14:00,
2013-10-19 15:24:00,70.0,15.0,-100.00,ESE,118,5.0,12.0,12,0.00,,,0.00,861.000000,,2013-10-19 22:24:00,
2013-10-19 16:12:00,69.0,16.0,-100.00,North,2,5.0,12.0,13,0.00,,,0.00,713.000000,,2013-10-19 23:12:00,
2013-10-19 16:22:00,69.0,16.0,-100.00,North,2,5.0,12.0,13,0.00,,,0.00,713.000000,,2013-10-19 23:22:00,
2013-10-19 16:33:00,69.0,16.0,-100.00,North,2,5.0,12.0,13,0.00,,,0.00,713.000000,,2013-10-19 23:33:00,
2013-10-19 18:11:00,60.0,15.0,-100.00,ESE,108,2.0,9.0,17,-99.99,,,0.00,122.000000,,2013-10-20 01:11:00,
2013-10-19 18:21:00,60.0,15.0,-100.00,ESE,108,2.0,9.0,17,-99.99,,,0.00,122.000000,,2013-10-20 01:21:00,
2013-10-19 18:32:00,60.0,15.0,-100.00,ESE,108,2.0,9.0,17,-99.99,,,0.00,122.000000,,2013-10-20 01:32:00,
2013-10-19 19:11:00,49.0,13.0,-100.00,WNW,289,2.0,6.0,23,0.00,,,0.00,7.000000,,2013-10-20 02:11:00,
2013-10-19 19:22:00,49.0,13.0,-100.00,WNW,289,2.0,6.0,23,0.00,,,0.00,7.000000,,2013-10-20 02:22:00,
2013-10-19 19:32:00,49.0,13.0,-100.00,WNW,289,2.0,6.0,23,0.00,,,0.00,7.000000,,2013-10-20 02:32:00,
2013-10-19 19:34:00,42.0,10.0,-100.00,WNW,289,2.0,5.0,27,0.00,,,0.00,0.000000,,2013-10-20 02:34:00,
2013-10-19 20:12:00,42.0,10.0,-100.00,WNW,289,2.0,5.0,27,0.00,,,0.00,0.000000,,2013-10-20 03:12:00,
2013-10-19 20:21:00,42.0,10.0,-100.00,WNW,289,2.0,5.0,27,0.00,,,0.00,0.000000,,2013-10-20 03:21:00,
2013-10-19 21:02:00,-999.0,-99.9,-100.00,WNW,285,0.0,5.0,-999,-99.99,,,-99.99,0.000000,,2013-10-20 04:02:00,
2013-10-19 21:14:00,38.0,11.0,-100.00,WNW,285,0.0,5.0,32,0.00,,,0.00,0.000000,,2013-10-20 04:14:00,
2013-10-19 21:24:00,38.0,11.0,-100.00,WNW,285,0.0,5.0,32,0.00,,,0.00,0.000000,,2013-10-20 04:24:00,
2013-10-19 21:33:00,38.0,11.0,-100.00,WNW,285,0.0,5.0,32,0.00,,,0.00,0.000000,,2013-10-20 04:33:00,
2013-10-19 22:13:00,35.0,9.0,-100.00,WNW,289,2.0,4.0,33,0.00,,,0.00,0.000000,,2013-10-20 05:13:00,
2013-10-19 22:23:00,35.0,9.0,-100.00,WNW,289,2.0,4.0,33,0.00,,,0.00,0.000000,,2013-10-20 05:23:00,
2013-10-19 22:33:00,35.0,9.0,-100.00,WNW,289,2.0,4.0,33,0.00,,,0.00,0.000000,,2013-10-20 05:33:00,
2013-10-19 23:12:00,32.0,9.0,-100.00,WNW,289,0.0,4.0,37,0.00,,,0.00,0.000000,,2013-10-20 06:12:00,
2013-10-19 23:22:00,32.0,9.0,-100.00,WNW,289,0.0,4.0,37,0.00,,,0.00,0.000000,,2013-10-20 06:22:00,
2013-10-19 23:32:00,32.0,9.0,-100.00,WNW,289,0.0,4.0,37,0.00,,,0.00,0.000000,,2013-10-20 06:32:00,